Klik op de webcam foto voor een grotere versieKlik op de webcam foto voor een grotere versie
Of klik hier voor
de webcam video


Weerstation
Wilsele-Leuven:Website of another weatherstation

Weerstation
Wilsele-Putkapel:Website of another weatherstation



Nabijgelegen vliegvelden - METAR rapporten

   
EBBR - Vaartkom-Leuven
Gewijzigd: 03-12-2020 14:20
Wat regen mogelijk, Motregen, Grotendeels bewolkt    Wind: Zuiden 19 km/h
Wat regen mogelijk, Motregen, Grotendeels bewolkt
Wind: Wind: Zuiden 19 km/h
Temperatuur: 5°C
Voelt als: 1°C
Dauwpunt: 4°C
Vochtigheid: 93%
Barometer: 994 hPa
Bewolking: Grotendeels bewolkt
Zicht: meer dan 10 km
Bewolking: Grotendeels bewolkt 274.3 m,
Grotendeels bewolkt 396.2 m
EBBR 031320Z 18010KT 9999 -RADZ BKN009 BKN013 05/04 Q0994 TEMPO 4000 -RA DZ BKN004
EBAW - Antwerp
Gewijzigd: 03-12-2020 14:50
Wat regen mogelijk, Bewolking    Wind: Zuiden 19 km/h
Wat regen mogelijk, Bewolking
Wind: Wind: Zuiden 19 km/h
Temperatuur: 6°C
Voelt als: 3°C
Dauwpunt: 4°C
Vochtigheid: 87%
Barometer: 993 hPa
Bewolking: Bewolking
Zicht: meer dan 10 km
Bewolking: Licht bewolkt 274.3 m,
Gedeeltelijk bewolkt 365.8 m,
Bewolking 640.1 m
EBAW 031350Z 17010KT 9999 -RA FEW009 SCT012 OVC021 06/04 Q0993 TEMPO SCT009 BKN012
EBLG - Liège
Gewijzigd: 03-12-2020 14:50
Wat regen mogelijk, Grotendeels bewolkt    Wind: Zuiden 22 km/h
Wat regen mogelijk, Grotendeels bewolkt
Wind: Wind: Zuiden 22 km/h
Temperatuur: 5°C
Voelt als: 1°C
Dauwpunt: 3°C
Vochtigheid: 87%
Barometer: 995 hPa
Bewolking: Grotendeels bewolkt
Zicht: meer dan 10 km
Bewolking: Gedeeltelijk bewolkt 365.8 m,
Grotendeels bewolkt 457.2 m
EBLG 031350Z 18012KT 9999 -RA SCT012 BKN015 05/03 Q0995 TEMPO BKN012
EBCV - Mons/Bergen
Gewijzigd: 03-12-2020 14:25
Bewolking    Wind: Zuiden 24 km/h
Bewolking
Wind: Wind: Zuiden 24 km/h
Temperatuur: 6°C
Voelt als: 2°C
Dauwpunt: 4°C
Vochtigheid: 87%
Barometer: 993 hPa
Bewolking: Bewolking
Bewolking: Bewolking 365.8 m
EBCV 031325Z AUTO 18013KT //// OVC012/// 06/04 Q0993 GRN
EHBK - Maastricht
Gewijzigd: 03-12-2020 14:25
Wat regen mogelijk, Grotendeels bewolkt    Wind: Zuiden 22 km/h
Wat regen mogelijk, Grotendeels bewolkt
Wind: Wind: Zuiden 22 km/h
Temperatuur: 5°C
Voelt als: 1°C
Dauwpunt: 3°C
Vochtigheid: 87%
Barometer: 996 hPa
Bewolking: Grotendeels bewolkt
Zicht: meer dan 10 km
Bewolking: Gedeeltelijk bewolkt 457.2 m,
Gedeeltelijk bewolkt 579.1 m,
Grotendeels bewolkt 975.4 m
EHBK 031325Z AUTO 19012KT 160V220 9999 -RA SCT015 SCT019 BKN032 05/03 Q0996 REDZRA NOSIG
ELLX - Luxemburg
Gewijzigd: 03-12-2020 14:50
Nevel, Grotendeels bewolkt    Wind: Zuiden 22 km/h
Nevel, Grotendeels bewolkt
Wind: Wind: Zuiden 22 km/h
Temperatuur: 2°C
Voelt als: -3°C
Dauwpunt: 2°C
Vochtigheid: 100%
Barometer: 997 hPa
Bewolking: Grotendeels bewolkt
Zicht: 2 km
Bewolking: Gedeeltelijk bewolkt 61 m,
Grotendeels bewolkt 121.9 m
ELLX 031350Z 17012KT 2000 BR SCT002 BKN004 02/02 Q0997 NOSIG
EBOS - Oostende
Gewijzigd: 03-12-2020 14:50
Wat regen mogelijk, Grotendeels bewolkt    Wind: Zuiden 30 km/h
Wat regen mogelijk, Grotendeels bewolkt
Wind: Wind: Zuiden 30 km/h
Temperatuur: 6°C
Voelt als: 2°C
Dauwpunt: 4°C
Vochtigheid: 87%
Barometer: 990 hPa
Bewolking: Grotendeels bewolkt
Zicht: meer dan 10 km
Bewolking: Licht bewolkt 274.3 m,
Grotendeels bewolkt 365.8 m
EBOS 031350Z 17016KT 9999 -RA FEW009 BKN012 06/04 Q0990 TEMPO 4500 -RADZ BK
  

Script ontwikkeld door  Saratoga-weather.org Aangepast voor de template door  Weerstation Leuven

U vindt ons ook hier:

ambientweather.net/

UK Metoffice

WeatherCloud

European Weather Network

Weather Underground

Bernelux Weather Network

AWEKAS

WeatherlinkIP

Citizen Weather Observer Program (CWOP)

HAMweather, WeatherForYou, PWS Weather

Apparatuur in gebruik:

Weer-station
Davis VUE

Weer-programma
Meteobridge

Weer-computer
Nano-SD

Webleverancier
Robohost

Davis VUE

Meteobridge

Nano-SD

Robohost